Aérodrome :
LOGIN :

S'inscrire | Disclaimer

   EN    FR    IT 

 










Légende :    VFR   VFR Marginal   IFR   IFR Intensif   IFR Très Intensif
Visi : 
Plafond : 
>= 8 km
>= 3000ft
5 à 8 km
1000 à 3000 ft
1500m à 5 km
500 à 1000 ft
800 à 1500m
200 à 500 ft
< 800m
< 200 ft
Symboles :   Orages  Brouillard  Fortes neiges  Fortes précipitations  Vent > 20 kt
SIGMETs :   Divers  Orages  Givrage  Turbulence  Onde Orograph.  Cendres Volcan.







- Altitude de l'aérodrome : 410 ft
- Code IATA : AVB


LIPA - Aviano AB Pordenone

DERNIER METAR :
  • 230655Z 34002KT 9999 SCT035 BKN055 07/06 Q1019 RMK BKN VIS MIN 9999 WIND THR05 /////KT WIND THR23 /////KT A3011 BLU

METARs EXPIRÉS :
  • 230555Z 34003KT 9999 SCT035 BKN050 06/05 Q1019 RMK BKN VIS MIN 7000SW WIND THR05 /////KT WIND THR23 /////KT A3010 WHT
  • 230455Z 36002KT 8000 SCT040 BKN055 06/05 Q1019 RMK BKN VIS MIN 6000SW WIND THR05 /////KT WIND THR23 /////KT A3011 WHT

TAF TAF LIPA
Valide du 23 à 06h jusqu'au 23 à 15h UTC


230500Z 2306/2315 01006KT 8000 BKN040
Pas de NOTAMs connus pour ce terrain.



MET'MAP, la Météo Aéronautique d'un coup d'oeil ! - Copyright ORBIFLY Décembre 2007 - Disclaimer

ORBIFLY MET'MAP TEAM :

Programmation & Développement : Alexandra Zaïnal
Conception & Développement : Baudouin d'Aumeries
Co-Programmation & Développement : Marc-Olivier Méhu
Soutien technique & logistique : Manuel Goepfert

Contact : metmap@orbifly.com




SOURCES & CREDITS :

   NOAA